sensor_id;sensor_type;location;lat;lon;timestamp;pressure;altitude;pressure_sealevel;temperature;humidity
32197;BME280;18697;42.770;23.400;2022-08-07T00:01:17;95330.41;;;25.88;56.01
32197;BME280;18697;42.770;23.400;2022-08-07T00:03:43;95329.28;;;25.91;56.11
32197;BME280;18697;42.770;23.400;2022-08-07T00:06:09;95335.53;;;25.90;55.23
32197;BME280;18697;42.770;23.400;2022-08-07T00:08:34;95328.16;;;25.86;55.71
32197;BME280;18697;42.770;23.400;2022-08-07T00:11:02;95330.06;;;25.84;54.98
32197;BME280;18697;42.770;23.400;2022-08-07T00:13:28;95333.69;;;25.77;56.42
32197;BME280;18697;42.770;23.400;2022-08-07T00:15:53;95342.22;;;25.69;55.55
32197;BME280;18697;42.770;23.400;2022-08-07T00:18:21;95336.53;;;25.69;55.87
32197;BME280;18697;42.770;23.400;2022-08-07T00:20:47;95337.28;;;25.70;56.36
32197;BME280;18697;42.770;23.400;2022-08-07T00:23:16;95342.97;;;25.62;54.97
32197;BME280;18697;42.770;23.400;2022-08-07T00:25:41;95344.13;;;25.44;56.59
32197;BME280;18697;42.770;23.400;2022-08-07T00:28:07;95348.69;;;25.47;56.97
32197;BME280;18697;42.770;23.400;2022-08-07T00:30:32;95352.84;;;25.53;57.91
32197;BME280;18697;42.770;23.400;2022-08-07T00:32:59;95351.69;;;25.57;54.96
32197;BME280;18697;42.770;23.400;2022-08-07T00:35:26;95351.34;;;25.37;55.41
32197;BME280;18697;42.770;23.400;2022-08-07T00:37:52;95347.16;;;25.46;57.43
32197;BME280;18697;42.770;23.400;2022-08-07T00:40:18;95341.84;;;25.50;55.41
32197;BME280;18697;42.770;23.400;2022-08-07T00:42:43;95348.84;;;25.57;55.91
32197;BME280;18697;42.770;23.400;2022-08-07T00:45:09;95345.84;;;25.47;56.21
32197;BME280;18697;42.770;23.400;2022-08-07T00:47:35;95350.38;;;25.50;57.10
32197;BME280;18697;42.770;23.400;2022-08-07T00:50:02;95345.84;;;25.47;54.15
32197;BME280;18697;42.770;23.400;2022-08-07T00:52:27;95337.75;;;25.20;54.11
32197;BME280;18697;42.770;23.400;2022-08-07T00:54:53;95337.56;;;25.03;57.60
32197;BME280;18697;42.770;23.400;2022-08-07T00:57:19;95339.81;;;24.97;56.70
32197;BME280;18697;42.770;23.400;2022-08-07T00:59:46;95335.09;;;25.15;58.67
32197;BME280;18697;42.770;23.400;2022-08-07T01:02:11;95343.97;;;25.27;55.53
32197;BME280;18697;42.770;23.400;2022-08-07T01:04:37;95346.59;;;25.40;58.73
32197;BME280;18697;42.770;23.400;2022-08-07T01:07:04;95337.13;;;25.52;58.41
32197;BME280;18697;42.770;23.400;2022-08-07T01:09:31;95343.72;;;25.63;57.69
32197;BME280;18697;42.770;23.400;2022-08-07T01:11:57;95353.22;;;25.65;56.88
32197;BME280;18697;42.770;23.400;2022-08-07T01:14:24;95349.03;;;25.74;58.67
32197;BME280;18697;42.770;23.400;2022-08-07T01:16:51;95348.28;;;25.50;55.90
32197;BME280;18697;42.770;23.400;2022-08-07T01:19:19;95351.34;;;25.45;56.68
32197;BME280;18697;42.770;23.400;2022-08-07T01:21:50;95343.03;;;25.16;56.61
32197;BME280;18697;42.770;23.400;2022-08-07T01:24:17;95352.63;;;24.75;57.39
32197;BME280;18697;42.770;23.400;2022-08-07T01:26:42;95347.19;;;24.93;58.12
32197;BME280;18697;42.770;23.400;2022-08-07T01:29:08;95355.16;;;25.02;59.41
32197;BME280;18697;42.770;23.400;2022-08-07T01:31:35;95367.63;;;24.91;59.43
32197;BME280;18697;42.770;23.400;2022-08-07T01:34:02;95371.59;;;24.80;60.08
32197;BME280;18697;42.770;23.400;2022-08-07T01:36:28;95376.13;;;24.76;59.76
32197;BME280;18697;42.770;23.400;2022-08-07T01:38:54;95392.97;;;24.81;59.90
32197;BME280;18697;42.770;23.400;2022-08-07T01:41:21;95403.97;;;24.85;59.73
32197;BME280;18697;42.770;23.400;2022-08-07T01:43:48;95431.59;;;24.77;59.32
32197;BME280;18697;42.770;23.400;2022-08-07T01:46:15;95434.38;;;24.62;58.41
32197;BME280;18697;42.770;23.400;2022-08-07T01:48:46;95437.41;;;24.20;60.06
32197;BME280;18697;42.770;23.400;2022-08-07T01:51:16;95435.50;;;24.15;60.33
32197;BME280;18697;42.770;23.400;2022-08-07T01:53:46;95433.59;;;24.10;58.25
32197;BME280;18697;42.770;23.400;2022-08-07T01:56:15;95425.63;;;24.08;58.58
32197;BME280;18697;42.770;23.400;2022-08-07T01:58:49;95416.72;;;24.04;58.94
32197;BME280;18697;42.770;23.400;2022-08-07T02:01:22;95426.00;;;24.05;60.03
32197;BME280;18697;42.770;23.400;2022-08-07T02:03:55;95423.97;;;23.84;62.23
32197;BME280;18697;42.770;23.400;2022-08-07T02:06:24;95427.66;;;23.64;65.19
32197;BME280;18697;42.770;23.400;2022-08-07T02:08:53;95436.44;;;23.32;68.15
32197;BME280;18697;42.770;23.400;2022-08-07T02:11:19;95419.31;;;23.17;70.57
32197;BME280;18697;42.770;23.400;2022-08-07T02:13:46;95419.84;;;23.15;71.76
32197;BME280;18697;42.770;23.400;2022-08-07T02:16:13;95407.91;;;23.09;72.88
32197;BME280;18697;42.770;23.400;2022-08-07T02:18:41;95404.06;;;22.99;73.27
32197;BME280;18697;42.770;23.400;2022-08-07T02:21:08;95407.94;;;22.75;75.18
32197;BME280;18697;42.770;23.400;2022-08-07T02:23:36;95390.28;;;22.27;78.49
32197;BME280;18697;42.770;23.400;2022-08-07T02:26:04;95379.75;;;22.15;79.11
32197;BME280;18697;42.770;23.400;2022-08-07T02:28:32;95373.03;;;22.05;80.42
32197;BME280;18697;42.770;23.400;2022-08-07T02:30:58;95364.34;;;22.03;81.02
32197;BME280;18697;42.770;23.400;2022-08-07T02:33:26;95361.47;;;22.16;79.77
32197;BME280;18697;42.770;23.400;2022-08-07T02:35:52;95382.38;;;22.47;75.99
32197;BME280;18697;42.770;23.400;2022-08-07T02:38:20;95403.16;;;22.83;74.07
32197;BME280;18697;42.770;23.400;2022-08-07T02:40:47;95404.88;;;23.07;74.70
32197;BME280;18697;42.770;23.400;2022-08-07T02:43:14;95397.94;;;23.37;71.33
32197;BME280;18697;42.770;23.400;2022-08-07T02:45:41;95399.31;;;23.64;70.90
32197;BME280;18697;42.770;23.400;2022-08-07T02:48:07;95392.72;;;23.69;72.15
32197;BME280;18697;42.770;23.400;2022-08-07T02:50:33;95388.88;;;23.38;75.38
32197;BME280;18697;42.770;23.400;2022-08-07T02:53:06;95391.34;;;22.92;76.03
32197;BME280;18697;42.770;23.400;2022-08-07T02:55:33;95384.97;;;23.20;74.53
32197;BME280;18697;42.770;23.400;2022-08-07T02:58:03;95384.13;;;23.12;73.71
32197;BME280;18697;42.770;23.400;2022-08-07T03:00:33;95391.56;;;23.44;70.29
32197;BME280;18697;42.770;23.400;2022-08-07T03:02:59;95406.28;;;23.42;73.63
32197;BME280;18697;42.770;23.400;2022-08-07T03:05:26;95405.47;;;23.55;70.63
32197;BME280;18697;42.770;23.400;2022-08-07T03:07:52;95410.03;;;23.16;76.08
32197;BME280;18697;42.770;23.400;2022-08-07T03:10:20;95407.91;;;23.09;76.04
32197;BME280;18697;42.770;23.400;2022-08-07T03:12:46;95409.16;;;22.80;77.97
32197;BME280;18697;42.770;23.400;2022-08-07T03:15:12;95408.00;;;22.96;75.17
32197;BME280;18697;42.770;23.400;2022-08-07T03:17:38;95408.78;;;23.25;72.67
32197;BME280;18697;42.770;23.400;2022-08-07T03:20:06;95419.56;;;23.47;73.26
32197;BME280;18697;42.770;23.400;2022-08-07T03:22:32;95409.53;;;23.67;72.45
32197;BME280;18697;42.770;23.400;2022-08-07T03:24:59;95402.19;;;23.72;72.48
32197;BME280;18697;42.770;23.400;2022-08-07T03:27:25;95405.16;;;23.66;72.41
32197;BME280;18697;42.770;23.400;2022-08-07T03:29:51;95403.72;;;23.73;70.99
32197;BME280;18697;42.770;23.400;2022-08-07T03:32:24;95406.66;;;23.96;69.56
32197;BME280;18697;42.770;23.400;2022-08-07T03:34:52;95406.53;;;24.09;71.40
32197;BME280;18697;42.770;23.400;2022-08-07T03:37:19;95411.28;;;24.14;69.52
32197;BME280;18697;42.770;23.400;2022-08-07T03:39:46;95399.22;;;24.21;68.34
32197;BME280;18697;42.770;23.400;2022-08-07T03:42:13;95411.59;;;24.31;70.08
32197;BME280;18697;42.770;23.400;2022-08-07T03:44:40;95411.22;;;24.35;69.00
32197;BME280;18697;42.770;23.400;2022-08-07T03:47:06;95401.94;;;24.34;68.66
32197;BME280;18697;42.770;23.400;2022-08-07T03:49:33;95401.03;;;24.39;68.57
32197;BME280;18697;42.770;23.400;2022-08-07T03:51:59;95410.13;;;24.45;67.72
32197;BME280;18697;42.770;23.400;2022-08-07T03:54:26;95414.13;;;24.57;67.89
32197;BME280;18697;42.770;23.400;2022-08-07T03:56:52;95396.16;;;24.63;67.82
32197;BME280;18697;42.770;23.400;2022-08-07T03:59:19;95407.25;;;24.38;70.98
32197;BME280;18697;42.770;23.400;2022-08-07T04:01:45;95400.47;;;24.41;68.39
32197;BME280;18697;42.770;23.400;2022-08-07T04:04:14;95407.47;;;24.55;67.23
32197;BME280;18697;42.770;23.400;2022-08-07T04:06:40;95410.34;;;24.63;67.16
32197;BME280;18697;42.770;23.400;2022-08-07T04:09:06;95405.84;;;24.75;67.68
32197;BME280;18697;42.770;23.400;2022-08-07T04:11:32;95399.41;;;24.82;66.55
32197;BME280;18697;42.770;23.400;2022-08-07T04:14:00;95409.09;;;24.94;67.92
32197;BME280;18697;42.770;23.400;2022-08-07T04:16:26;95416.16;;;25.01;66.71
32197;BME280;18697;42.770;23.400;2022-08-07T04:18:52;95405.19;;;25.12;65.19
32197;BME280;18697;42.770;23.400;2022-08-07T04:21:18;95414.84;;;25.25;66.12
32197;BME280;18697;42.770;23.400;2022-08-07T04:23:44;95420.13;;;25.36;65.35
32197;BME280;18697;42.770;23.400;2022-08-07T04:26:10;95421.84;;;25.46;65.19
32197;BME280;18697;42.770;23.400;2022-08-07T04:28:35;95422.59;;;25.54;64.83
32197;BME280;18697;42.770;23.400;2022-08-07T04:31:01;95428.09;;;25.60;65.03
32197;BME280;18697;42.770;23.400;2022-08-07T04:33:27;95423.38;;;25.70;64.71
32197;BME280;18697;42.770;23.400;2022-08-07T04:35:53;95424.13;;;25.78;64.63
32197;BME280;18697;42.770;23.400;2022-08-07T04:38:19;95426.78;;;25.84;64.52
32197;BME280;18697;42.770;23.400;2022-08-07T04:40:45;95431.69;;;25.91;64.81
32197;BME280;18697;42.770;23.400;2022-08-07T04:43:14;95430.19;;;25.82;66.20
32197;BME280;18697;42.770;23.400;2022-08-07T04:48:40;95430.38;;;25.77;64.88
32197;BME280;18697;42.770;23.400;2022-08-07T04:51:18;95433.59;;;25.89;65.33
32197;BME280;18697;42.770;23.400;2022-08-07T04:53:55;95437.00;;;25.87;64.45
32197;BME280;18697;42.770;23.400;2022-08-07T04:56:36;95446.50;;;25.82;66.76
32197;BME280;18697;42.770;23.400;2022-08-07T04:59:14;95444.22;;;25.80;64.97
32197;BME280;18697;42.770;23.400;2022-08-07T05:01:46;95445.94;;;25.83;63.95
32197;BME280;18697;42.770;23.400;2022-08-07T05:12:47;95449.50;;;25.92;63.66
32197;BME280;18697;42.770;23.400;2022-08-07T05:15:19;95456.53;;;25.83;63.80
32197;BME280;18697;42.770;23.400;2022-08-07T05:17:48;95450.63;;;25.35;67.92
32197;BME280;18697;42.770;23.400;2022-08-07T05:20:18;95456.16;;;24.67;71.56
32197;BME280;18697;42.770;23.400;2022-08-07T05:22:50;95459.56;;;24.65;71.87
32197;BME280;18697;42.770;23.400;2022-08-07T05:25:18;95460.03;;;24.92;69.74
32197;BME280;18697;42.770;23.400;2022-08-07T05:27:45;95458.59;;;25.14;65.92
32197;BME280;18697;42.770;23.400;2022-08-07T05:30:10;95463.16;;;25.25;67.31
32197;BME280;18697;42.770;23.400;2022-08-07T05:32:37;95464.28;;;25.21;67.31
32197;BME280;18697;42.770;23.400;2022-08-07T05:35:05;95466.75;;;25.10;68.51
32197;BME280;18697;42.770;23.400;2022-08-07T05:37:32;95467.13;;;25.21;68.43
32197;BME280;18697;42.770;23.400;2022-08-07T05:39:58;95468.47;;;25.20;69.96
32197;BME280;18697;42.770;23.400;2022-08-07T05:42:25;95474.16;;;25.20;68.49
32197;BME280;18697;42.770;23.400;2022-08-07T05:44:51;95483.59;;;25.31;66.25
32197;BME280;18697;42.770;23.400;2022-08-07T05:47:19;95475.47;;;25.42;66.27
32197;BME280;18697;42.770;23.400;2022-08-07T05:49:49;95479.81;;;25.36;67.64
32197;BME280;18697;42.770;23.400;2022-08-07T05:52:19;95481.34;;;25.29;67.56
32197;BME280;18697;42.770;23.400;2022-08-07T05:54:45;95503.06;;;24.96;67.19
32197;BME280;18697;42.770;23.400;2022-08-07T05:57:11;95487.88;;;24.94;68.37
32197;BME280;18697;42.770;23.400;2022-08-07T05:59:40;95498.47;;;24.93;67.64
32197;BME280;18697;42.770;23.400;2022-08-07T06:02:07;95503.19;;;24.83;68.40
32197;BME280;18697;42.770;23.400;2022-08-07T06:04:41;95503.28;;;25.06;67.42
32197;BME280;18697;42.770;23.400;2022-08-07T06:07:09;95510.72;;;25.47;66.25
32197;BME280;18697;42.770;23.400;2022-08-07T06:09:35;95509.19;;;25.38;67.85
32197;BME280;18697;42.770;23.400;2022-08-07T06:12:01;95511.31;;;25.53;66.86
32197;BME280;18697;42.770;23.400;2022-08-07T06:14:27;95513.25;;;25.73;64.45
32197;BME280;18697;42.770;23.400;2022-08-07T06:16:53;95506.59;;;25.94;64.25
32197;BME280;18697;42.770;23.400;2022-08-07T06:19:19;95516.78;;;26.27;65.18
32197;BME280;18697;42.770;23.400;2022-08-07T06:21:45;95513.91;;;26.58;63.58
32197;BME280;18697;42.770;23.400;2022-08-07T06:24:12;95508.47;;;26.84;60.45
32197;BME280;18697;42.770;23.400;2022-08-07T06:26:44;95503.28;;;26.98;60.61
32197;BME280;18697;42.770;23.400;2022-08-07T06:29:10;95503.78;;;27.12;55.97
32197;BME280;18697;42.770;23.400;2022-08-07T06:31:35;95502.63;;;27.15;55.15
32197;BME280;18697;42.770;23.400;2022-08-07T06:34:01;95507.31;;;27.28;55.67
32197;BME280;18697;42.770;23.400;2022-08-07T06:36:27;95503.66;;;27.35;54.13
32197;BME280;18697;42.770;23.400;2022-08-07T06:38:53;95519.75;;;27.47;54.78
32197;BME280;18697;42.770;23.400;2022-08-07T06:41:44;95514.91;;;27.58;55.07
32197;BME280;18697;42.770;23.400;2022-08-07T06:44:11;95504.28;;;27.83;53.71
32197;BME280;18697;42.770;23.400;2022-08-07T06:46:39;95503.03;;;27.94;52.80
32197;BME280;18697;42.770;23.400;2022-08-07T06:49:05;95503.31;;;28.05;52.69
32197;BME280;18697;42.770;23.400;2022-08-07T06:51:33;95499.72;;;28.05;51.58
32197;BME280;18697;42.770;23.400;2022-08-07T06:54:00;95498.19;;;28.04;51.92
32197;BME280;18697;42.770;23.400;2022-08-07T06:56:30;95500.47;;;28.05;51.78
32197;BME280;18697;42.770;23.400;2022-08-07T06:59:38;95506.19;;;28.05;51.53
32197;BME280;18697;42.770;23.400;2022-08-07T07:02:06;95510.47;;;28.14;51.82
32197;BME280;18697;42.770;23.400;2022-08-07T07:04:32;95513.19;;;28.29;51.87
32197;BME280;18697;42.770;23.400;2022-08-07T07:06:59;95511.00;;;28.37;52.51
32197;BME280;18697;42.770;23.400;2022-08-07T07:09:27;95513.97;;;28.47;50.18
32197;BME280;18697;42.770;23.400;2022-08-07T07:12:13;95514.22;;;28.41;51.49
32197;BME280;18697;42.770;23.400;2022-08-07T07:17:20;95513.66;;;28.18;50.88
32197;BME280;18697;42.770;23.400;2022-08-07T07:19:50;95517.69;;;28.15;51.55
32197;BME280;18697;42.770;23.400;2022-08-07T07:22:18;95523.41;;;28.15;50.12
32197;BME280;18697;42.770;23.400;2022-08-07T07:24:45;95522.41;;;28.20;50.72
32197;BME280;18697;42.770;23.400;2022-08-07T07:27:15;95519.75;;;28.39;50.69
32197;BME280;18697;42.770;23.400;2022-08-07T07:29:46;95515.38;;;28.56;51.59
32197;BME280;18697;42.770;23.400;2022-08-07T07:32:15;95521.44;;;28.60;49.79
32197;BME280;18697;42.770;23.400;2022-08-07T07:34:44;95525.72;;;28.51;50.18
32197;BME280;18697;42.770;23.400;2022-08-07T07:37:11;95527.66;;;28.49;49.71
32197;BME280;18697;42.770;23.400;2022-08-07T07:39:38;95517.81;;;28.59;49.55
32197;BME280;18697;42.770;23.400;2022-08-07T07:42:05;95529.50;;;28.71;47.17
32197;BME280;18697;42.770;23.400;2022-08-07T07:44:33;95523.13;;;28.80;49.17
32197;BME280;18697;42.770;23.400;2022-08-07T07:47:01;95517.75;;;28.67;47.83
32197;BME280;18697;42.770;23.400;2022-08-07T07:49:28;95525.47;;;28.74;47.56
32197;BME280;18697;42.770;23.400;2022-08-07T07:51:56;95526.66;;;28.71;47.88
32197;BME280;18697;42.770;23.400;2022-08-07T07:54:23;95524.97;;;28.51;47.67
32197;BME280;18697;42.770;23.400;2022-08-07T07:56:51;95519.25;;;28.51;47.99
32197;BME280;18697;42.770;23.400;2022-08-07T07:59:18;95518.16;;;28.63;48.54
32197;BME280;18697;42.770;23.400;2022-08-07T08:01:47;95516.56;;;28.70;47.30
32197;BME280;18697;42.770;23.400;2022-08-07T08:04:14;95519.75;;;28.74;47.77
32197;BME280;18697;42.770;23.400;2022-08-07T08:06:42;95509.25;;;28.94;49.28
32197;BME280;18697;42.770;23.400;2022-08-07T08:09:09;95520.22;;;29.15;47.80
32197;BME280;18697;42.770;23.400;2022-08-07T08:11:36;95502.72;;;29.10;46.39
32197;BME280;18697;42.770;23.400;2022-08-07T08:14:01;95503.72;;;28.96;47.13
32197;BME280;18697;42.770;23.400;2022-08-07T08:16:37;95507.44;;;29.16;48.73
32197;BME280;18697;42.770;23.400;2022-08-07T08:19:06;95505.13;;;29.31;45.44
32197;BME280;18697;42.770;23.400;2022-08-07T08:21:34;95507.63;;;29.45;46.54
32197;BME280;18697;42.770;23.400;2022-08-07T08:24:20;95512.25;;;29.40;47.46
32197;BME280;18697;42.770;23.400;2022-08-07T08:27:05;95511.28;;;29.28;45.93
32197;BME280;18697;42.770;23.400;2022-08-07T08:29:43;95517.00;;;29.28;46.39
32197;BME280;18697;42.770;23.400;2022-08-07T08:32:14;95517.41;;;29.24;45.47
32197;BME280;18697;42.770;23.400;2022-08-07T08:34:42;95517.63;;;29.09;46.15
32197;BME280;18697;42.770;23.400;2022-08-07T08:37:10;95523.00;;;29.05;46.25
32197;BME280;18697;42.770;23.400;2022-08-07T08:39:39;95528.72;;;29.05;46.82
32197;BME280;18697;42.770;23.400;2022-08-07T08:42:16;95532.41;;;29.15;46.63
32197;BME280;18697;42.770;23.400;2022-08-07T08:47:41;95522.69;;;29.45;46.12
32197;BME280;18697;42.770;23.400;2022-08-07T08:50:14;95528.94;;;29.61;45.40
32197;BME280;18697;42.770;23.400;2022-08-07T08:55:31;95526.88;;;30.07;45.94
32197;BME280;18697;42.770;23.400;2022-08-07T09:00:51;95523.16;;;30.24;44.32
32197;BME280;18697;42.770;23.400;2022-08-07T09:03:43;95518.66;;;30.31;44.01
32197;BME280;18697;42.770;23.400;2022-08-07T09:11:42;95510.69;;;30.39;44.17
32197;BME280;18697;42.770;23.400;2022-08-07T09:14:17;95511.59;;;30.42;43.65
32197;BME280;18697;42.770;23.400;2022-08-07T09:19:51;95509.66;;;30.73;42.83
32197;BME280;18697;42.770;23.400;2022-08-07T09:22:33;95501.19;;;30.94;42.85
32197;BME280;18697;42.770;23.400;2022-08-07T09:25:10;95500.75;;;30.88;41.05
32197;BME280;18697;42.770;23.400;2022-08-07T09:27:51;95506.78;;;30.63;41.02
32197;BME280;18697;42.770;23.400;2022-08-07T09:30:22;95487.75;;;30.39;40.06
32197;BME280;18697;42.770;23.400;2022-08-07T09:33:01;95485.78;;;30.22;41.64
32197;BME280;18697;42.770;23.400;2022-08-07T09:38:08;95494.78;;;30.09;42.66
32197;BME280;18697;42.770;23.400;2022-08-07T09:40:50;95492.38;;;30.15;41.88
32197;BME280;18697;42.770;23.400;2022-08-07T09:51:58;95471.44;;;31.09;40.31
32197;BME280;18697;42.770;23.400;2022-08-07T09:54:38;95475.69;;;31.08;40.49
32197;BME280;18697;42.770;23.400;2022-08-07T09:59:57;95486.56;;;30.81;41.38
32197;BME280;18697;42.770;23.400;2022-08-07T10:06:24;95473.28;;;31.04;40.33
32197;BME280;18697;42.770;23.400;2022-08-07T10:28:17;95465.28;;;30.84;41.25
32197;BME280;18697;42.770;23.400;2022-08-07T10:31:02;95462.72;;;30.78;41.63
32197;BME280;18697;42.770;23.400;2022-08-07T10:33:46;95464.25;;;30.79;40.26
32197;BME280;18697;42.770;23.400;2022-08-07T10:41:38;95466.78;;;30.94;40.69
32197;BME280;18697;42.770;23.400;2022-08-07T10:47:04;95467.41;;;30.64;40.83
32197;BME280;18697;42.770;23.400;2022-08-07T10:49:45;95477.22;;;30.70;40.80
32197;BME280;18697;42.770;23.400;2022-08-07T10:52:33;95463.78;;;30.73;41.72
32197;BME280;18697;42.770;23.400;2022-08-07T10:55:12;95465.16;;;30.62;39.66
32197;BME280;18697;42.770;23.400;2022-08-07T10:57:54;95469.81;;;30.77;39.83
32197;BME280;18697;42.770;23.400;2022-08-07T11:00:30;95469.06;;;30.77;40.24
32197;BME280;18697;42.770;23.400;2022-08-07T11:03:11;95472.34;;;30.54;39.90
32197;BME280;18697;42.770;23.400;2022-08-07T11:08:37;95468.16;;;29.80;43.57
32197;BME280;18697;42.770;23.400;2022-08-07T11:14:01;95462.75;;;29.20;47.29
32197;BME280;18697;42.770;23.400;2022-08-07T11:16:35;95473.38;;;28.83;47.66
32197;BME280;18697;42.770;23.400;2022-08-07T11:19:22;95484.38;;;28.69;48.20
32197;BME280;18697;42.770;23.400;2022-08-07T11:24:59;95472.28;;;28.78;48.35
32197;BME280;18697;42.770;23.400;2022-08-07T11:30:19;95468.91;;;28.72;50.88
32197;BME280;18697;42.770;23.400;2022-08-07T11:33:01;95471.28;;;28.32;51.00
32197;BME280;18697;42.770;23.400;2022-08-07T11:38:29;95476.56;;;28.35;51.76
32197;BME280;18697;42.770;23.400;2022-08-07T11:41:02;95479.44;;;28.35;53.16
32197;BME280;18697;42.770;23.400;2022-08-07T11:44:15;95475.81;;;28.35;51.65
32197;BME280;18697;42.770;23.400;2022-08-07T11:57:43;95488.59;;;29.13;48.61
32197;BME280;18697;42.770;23.400;2022-08-07T12:00:18;95488.66;;;28.78;47.46
32197;BME280;18697;42.770;23.400;2022-08-07T12:08:37;95485.41;;;28.47;53.38
32197;BME280;18697;42.770;23.400;2022-08-07T12:16:25;95483.78;;;28.54;52.94
32197;BME280;18697;42.770;23.400;2022-08-07T12:21:36;95481.44;;;28.42;52.38
32197;BME280;18697;42.770;23.400;2022-08-07T12:24:11;95478.31;;;28.13;53.46
32197;BME280;18697;42.770;23.400;2022-08-07T12:27:13;95491.38;;;27.99;52.22
32197;BME280;18697;42.770;23.400;2022-08-07T12:29:45;95478.69;;;27.93;55.75
32197;BME280;18697;42.770;23.400;2022-08-07T12:32:44;95479.41;;;28.18;53.56
32197;BME280;18697;42.770;23.400;2022-08-07T12:35:12;95482.69;;;28.14;51.80
32197;BME280;18697;42.770;23.400;2022-08-07T12:37:40;95493.53;;;28.16;52.72
32197;BME280;18697;42.770;23.400;2022-08-07T12:40:08;95479.91;;;28.24;51.99
32197;BME280;18697;42.770;23.400;2022-08-07T12:42:36;95482.44;;;28.37;53.00
32197;BME280;18697;42.770;23.400;2022-08-07T12:45:11;95482.28;;;28.53;50.47
32197;BME280;18697;42.770;23.400;2022-08-07T12:50:24;95476.41;;;28.68;51.35
32197;BME280;18697;42.770;23.400;2022-08-07T12:53:11;95466.91;;;28.83;50.96
32197;BME280;18697;42.770;23.400;2022-08-07T12:55:45;95463.94;;;29.17;50.07
32197;BME280;18697;42.770;23.400;2022-08-07T12:58:15;95452.72;;;29.29;47.23
32197;BME280;18697;42.770;23.400;2022-08-07T13:00:53;95446.72;;;29.34;46.10
32197;BME280;18697;42.770;23.400;2022-08-07T13:09:30;95436.50;;;29.77;45.70
32197;BME280;18697;42.770;23.400;2022-08-07T13:12:16;95440.31;;;29.90;45.61
32197;BME280;18697;42.770;23.400;2022-08-07T13:20:46;95423.53;;;30.32;43.85
32197;BME280;18697;42.770;23.400;2022-08-07T13:23:25;95419.00;;;30.39;44.40
32197;BME280;18697;42.770;23.400;2022-08-07T13:25:58;95422.44;;;30.18;42.92
32197;BME280;18697;42.770;23.400;2022-08-07T13:28:32;95412.66;;;30.31;43.28
32197;BME280;18697;42.770;23.400;2022-08-07T13:31:09;95415.06;;;30.25;43.71
32197;BME280;18697;42.770;23.400;2022-08-07T13:33:47;95410.41;;;30.29;43.23
32197;BME280;18697;42.770;23.400;2022-08-07T13:36:24;95431.19;;;30.20;42.78
32197;BME280;18697;42.770;23.400;2022-08-07T13:41:38;95433.91;;;30.18;42.78
32197;BME280;18697;42.770;23.400;2022-08-07T13:44:04;95435.03;;;29.86;42.75
32197;BME280;18697;42.770;23.400;2022-08-07T13:46:34;95442.81;;;29.66;44.15
32197;BME280;18697;42.770;23.400;2022-08-07T13:49:04;95439.38;;;29.41;44.89
32197;BME280;18697;42.770;23.400;2022-08-07T13:51:32;95439.28;;;29.22;44.30
32197;BME280;18697;42.770;23.400;2022-08-07T13:54:02;95433.94;;;29.08;44.12
32197;BME280;18697;42.770;23.400;2022-08-07T13:56:29;95431.53;;;29.05;44.59
32197;BME280;18697;42.770;23.400;2022-08-07T13:58:57;95438.25;;;29.00;44.84
32197;BME280;18697;42.770;23.400;2022-08-07T14:01:35;95433.44;;;28.93;45.36
32197;BME280;18697;42.770;23.400;2022-08-07T14:04:14;95433.28;;;28.91;46.15
32197;BME280;18697;42.770;23.400;2022-08-07T14:06:44;95451.34;;;28.76;45.26
32197;BME280;18697;42.770;23.400;2022-08-07T14:09:19;95438.34;;;28.65;46.09
32197;BME280;18697;42.770;23.400;2022-08-07T14:11:49;95444.31;;;28.60;45.36
32197;BME280;18697;42.770;23.400;2022-08-07T14:14:15;95431.88;;;28.65;45.29
32197;BME280;18697;42.770;23.400;2022-08-07T14:16:45;95420.94;;;28.71;45.25
32197;BME280;18697;42.770;23.400;2022-08-07T14:19:28;95420.75;;;28.86;45.80
32197;BME280;18697;42.770;23.400;2022-08-07T14:21:55;95426.53;;;28.96;45.58
32197;BME280;18697;42.770;23.400;2022-08-07T14:24:26;95423.03;;;28.88;45.53
32197;BME280;18697;42.770;23.400;2022-08-07T14:26:58;95427.13;;;28.77;45.37
32197;BME280;18697;42.770;23.400;2022-08-07T14:29:31;95419.47;;;28.79;45.82
32197;BME280;18697;42.770;23.400;2022-08-07T14:32:01;95422.59;;;28.74;45.72
32197;BME280;18697;42.770;23.400;2022-08-07T14:34:29;95415.38;;;28.73;45.72
32197;BME280;18697;42.770;23.400;2022-08-07T14:36:59;95419.47;;;28.79;45.92
32197;BME280;18697;42.770;23.400;2022-08-07T14:39:25;95419.66;;;28.82;46.16
32197;BME280;18697;42.770;23.400;2022-08-07T14:41:52;95424.28;;;28.77;46.52
32197;BME280;18697;42.770;23.400;2022-08-07T14:44:18;95417.72;;;28.84;46.60
32197;BME280;18697;42.770;23.400;2022-08-07T14:46:45;95423.94;;;28.90;47.08
32197;BME280;18697;42.770;23.400;2022-08-07T14:49:11;95419.47;;;28.97;47.56
32197;BME280;18697;42.770;23.400;2022-08-07T14:51:41;95415.13;;;29.05;47.04
32197;BME280;18697;42.770;23.400;2022-08-07T14:54:08;95422.13;;;29.22;46.65
32197;BME280;18697;42.770;23.400;2022-08-07T14:56:39;95414.34;;;29.32;46.36
32197;BME280;18697;42.770;23.400;2022-08-07T14:59:06;95412.47;;;29.44;45.76
32197;BME280;18697;42.770;23.400;2022-08-07T15:01:35;95407.97;;;29.51;45.07
32197;BME280;18697;42.770;23.400;2022-08-07T15:04:04;95419.31;;;29.58;45.85
32197;BME280;18697;42.770;23.400;2022-08-07T15:06:33;95406.38;;;29.67;44.89
32197;BME280;18697;42.770;23.400;2022-08-07T15:09:04;95401.56;;;29.69;45.88
32197;BME280;18697;42.770;23.400;2022-08-07T15:11:37;95402.03;;;29.85;44.96
32197;BME280;18697;42.770;23.400;2022-08-07T15:14:06;95409.28;;;29.96;45.64
32197;BME280;18697;42.770;23.400;2022-08-07T15:16:41;95408.13;;;30.08;45.72
32197;BME280;18697;42.770;23.400;2022-08-07T15:19:12;95403.31;;;30.11;43.60